Time;durP1;ratioP1;P1;durP2;ratioP2;P2;SDS_P1;SDS_P2;PMS_P1;PMS_P2;Temp;Humidity;BMP_temperature;BMP_pressure;BME280_temperature;BME280_humidity;BME280_pressure;Samples;Min_cycle;Max_cycle;Signal;HPM_P1;HPM_P2
2023/10/15 00:01:53;;;;;;;1.67;1.00;;;21.90;42.50;;;;;;5008109;28;20528;-50
2023/10/15 00:04:22;;;;;;;1.75;0.90;;;21.90;42.50;;;;;;5008162;28;20045;-50
2023/10/15 00:06:48;;;;;;;1.58;0.68;;;21.90;42.60;;;;;;5006427;28;20676;-52
2023/10/15 00:09:14;;;;;;;1.73;0.80;;;21.90;42.60;;;;;;5009366;28;20053;-52
2023/10/15 00:11:40;;;;;;;2.38;0.70;;;21.90;42.60;;;;;;5008117;28;20113;-52
2023/10/15 00:14:06;;;;;;;1.60;0.80;;;21.90;42.70;;;;;;5007880;28;20053;-50
2023/10/15 00:16:33;;;;;;;2.00;0.80;;;21.90;42.70;;;;;;5008885;28;20050;-48
2023/10/15 00:19:09;;;;;;;2.20;0.90;;;21.90;42.70;;;;;;5012076;28;20026;-50
2023/10/15 00:21:35;;;;;;;1.92;0.63;;;21.90;42.70;;;;;;5011214;28;20022;-50
2023/10/15 00:24:05;;;;;;;1.58;0.70;;;21.90;42.70;;;;;;5010523;28;20099;-52
2023/10/15 00:26:31;;;;;;;1.27;0.70;;;21.90;42.80;;;;;;5011138;28;20038;-53
2023/10/15 00:28:57;;;;;;;1.77;0.68;;;21.90;42.80;;;;;;5011383;28;20360;-53
2023/10/15 00:31:24;;;;;;;1.73;0.80;;;21.90;42.70;;;;;;5010945;28;20025;-53
2023/10/15 00:33:50;;;;;;;1.35;0.60;;;21.90;42.80;;;;;;5012210;28;20044;-53
2023/10/15 00:36:16;;;;;;;1.25;0.50;;;21.90;42.80;;;;;;5010801;28;20034;-52
2023/10/15 00:38:46;;;;;;;2.47;0.70;;;21.90;42.80;;;;;;5011271;28;20021;-50
2023/10/15 00:41:13;;;;;;;1.10;0.50;;;21.90;42.80;;;;;;5011979;28;20034;-53
2023/10/15 00:43:55;;;;;;;0.95;0.60;;;21.90;42.70;;;;;;4993910;28;20120;-53
2023/10/15 00:46:28;;;;;;;1.55;0.60;;;21.90;42.70;;;;;;4993288;28;20042;-55
2023/10/15 00:49:02;;;;;;;0.75;0.40;;;21.90;42.70;;;;;;5011115;28;20030;-52
2023/10/15 00:51:27;;;;;;;1.80;0.60;;;21.90;42.70;;;;;;5010044;28;20054;-49
2023/10/15 00:53:58;;;;;;;0.95;0.32;;;21.90;42.70;;;;;;5011173;28;20142;-52
2023/10/15 00:56:33;;;;;;;0.80;0.40;;;21.90;42.70;;;;;;4994854;28;20025;-51
2023/10/15 01:01:34;;;;;;;1.20;0.47;;;21.90;42.80;;;;;;5008829;28;20038;-50
2023/10/15 01:04:06;;;;;;;1.50;0.50;;;21.90;42.70;;;;;;4993695;28;20512;-52
2023/10/15 01:09:10;;;;;;;1.05;0.50;;;21.90;42.70;;;;;;5009494;28;20026;-53
2023/10/15 01:11:37;;;;;;;1.50;0.65;;;21.90;42.70;;;;;;4977253;28;20050;-50
2023/10/15 01:14:04;;;;;;;1.20;0.47;;;21.90;42.70;;;;;;5007628;28;20389;-49
2023/10/15 01:16:35;;;;;;;1.33;0.68;;;21.80;42.70;;;;;;5010320;28;20056;-52
2023/10/15 01:21:57;;;;;;;0.68;0.30;;;21.80;42.70;;;;;;4991811;28;20037;-52
2023/10/15 01:24:28;;;;;;;1.17;0.40;;;21.80;42.70;;;;;;5010004;28;20084;-50
2023/10/15 01:29:33;;;;;;;1.17;0.30;;;21.80;42.70;;;;;;5007914;28;20041;-52
2023/10/15 01:34:38;;;;;;;1.17;0.40;;;21.80;42.60;;;;;;5008638;28;20032;-50
2023/10/15 01:37:14;;;;;;;0.90;0.30;;;21.80;42.70;;;;;;5010472;28;20072;-51
2023/10/15 01:39:45;;;;;;;1.27;0.50;;;21.80;42.60;;;;;;5010109;28;20037;-51
2023/10/15 01:42:31;;;;;;;0.70;0.50;;;21.80;42.60;;;;;;5008632;28;20361;-48
2023/10/15 01:45:47;;;;;;;0.82;0.47;;;21.80;42.60;;;;;;4993172;28;20167;-48
2023/10/15 01:50:33;;;;;;;0.77;0.40;;;21.80;43.20;;;;;;4991826;28;20030;-54
2023/10/15 01:53:02;;;;;;;1.10;0.30;;;21.80;42.50;;;;;;5009787;28;20025;-52
2023/10/15 01:55:29;;;;;;;0.55;0.32;;;21.80;42.50;;;;;;5009659;28;20326;-49
2023/10/15 01:58:00;;;;;;;1.23;0.50;;;21.80;42.50;;;;;;5009554;28;20041;-53
2023/10/15 02:03:10;;;;;;;1.08;0.52;;;21.80;42.50;;;;;;5009747;28;20376;-54
2023/10/15 02:05:42;;;;;;;0.80;0.40;;;21.80;42.50;;;;;;5009235;28;20033;-51
2023/10/15 02:08:09;;;;;;;0.55;0.32;;;21.80;42.50;;;;;;5008027;28;20041;-50
2023/10/15 02:10:39;;;;;;;2.60;0.47;;;21.70;42.40;;;;;;4991869;28;20033;-53
2023/10/15 02:13:05;;;;;;;0.63;0.30;;;21.80;42.50;;;;;;5008683;28;20244;-51
2023/10/15 02:15:39;;;;;;;1.52;0.55;;;21.70;42.40;;;;;;5008832;28;20372;-49
2023/10/15 02:18:13;;;;;;;1.08;0.63;;;21.70;42.40;;;;;;4992190;28;20433;-49
2023/10/15 02:21:01;;;;;;;;;;;21.70;42.40;;;;;;4992959;28;20033;-47
2023/10/15 02:23:27;;;;;;;0.95;0.57;;;21.80;42.50;;;;;;4992090;28;19925;-54
2023/10/15 02:25:57;;;;;;;1.70;0.52;;;21.80;42.50;;;;;;5009137;28;20034;-51
2023/10/15 02:28:26;;;;;;;1.38;0.40;;;21.70;42.40;;;;;;5008768;28;20026;-49
2023/10/15 02:31:00;;;;;;;1.27;0.40;;;21.70;42.40;;;;;;4990833;28;20038;-48
2023/10/15 02:33:27;;;;;;;0.60;0.30;;;21.70;42.40;;;;;;5007542;28;20073;-48
2023/10/15 02:35:59;;;;;;;1.10;0.43;;;21.70;42.50;;;;;;5007931;28;20048;-51
2023/10/15 02:38:35;;;;;;;0.80;0.30;;;21.70;42.50;;;;;;5008510;28;20038;-52
2023/10/15 02:41:06;;;;;;;0.73;0.38;;;21.70;42.50;;;;;;4990722;28;20021;-50
2023/10/15 02:43:36;;;;;;;0.50;0.40;;;21.70;42.50;;;;;;5009305;28;20133;-48
2023/10/15 02:46:17;;;;;;;1.25;0.50;;;21.70;42.50;;;;;;5007922;28;20050;-53
2023/10/15 02:48:44;;;;;;;1.27;0.40;;;21.70;42.50;;;;;;5008969;28;20037;-50
2023/10/15 02:51:14;;;;;;;1.33;0.40;;;21.70;42.50;;;;;;4990528;28;20109;-52
2023/10/15 02:53:50;;;;;;;1.30;0.40;;;21.70;42.50;;;;;;4992298;28;20131;-50
2023/10/15 02:56:18;;;;;;;0.90;0.38;;;21.70;42.50;;;;;;5005969;28;20022;-47
2023/10/15 02:58:44;;;;;;;0.98;0.40;;;21.70;42.50;;;;;;5008931;28;20038;-53
2023/10/15 03:01:20;;;;;;;1.67;0.40;;;21.70;42.50;;;;;;4990872;28;20429;-47
2023/10/15 03:03:52;;;;;;;0.88;0.32;;;21.70;42.50;;;;;;4992316;28;20046;-50
2023/10/15 03:06:19;;;;;;;0.82;0.35;;;21.70;42.50;;;;;;5007049;28;20026;-51
2023/10/15 03:08:48;;;;;;;1.15;0.40;;;21.70;42.50;;;;;;5007868;28;20022;-50
2023/10/15 03:11:14;;;;;;;1.02;0.45;;;21.70;42.50;;;;;;5008136;28;20480;-49
2023/10/15 03:13:55;;;;;;;0.90;0.40;;;21.70;42.50;;;;;;5007046;28;20033;-49
2023/10/15 03:16:35;;;;;;;0.75;0.35;;;21.70;42.50;;;;;;4987477;28;20121;-49
2023/10/15 03:19:09;;;;;;;0.65;0.22;;;21.70;42.40;;;;;;4989973;28;20048;-51
2023/10/15 03:21:39;;;;;;;;;;;21.70;42.40;;;;;;4990601;28;20037;-53
2023/10/15 03:24:06;;;;;;;1.15;0.40;;;21.70;42.40;;;;;;4989831;28;20186;-48
2023/10/15 03:26:34;;;;;;;0.90;0.30;;;21.60;42.30;;;;;;5008997;28;20029;-50
2023/10/15 03:29:06;;;;;;;1.05;0.32;;;21.60;42.30;;;;;;5007483;28;20473;-54
2023/10/15 03:31:32;;;;;;;0.52;0.30;;;21.60;42.40;;;;;;5008108;28;20416;-50
2023/10/15 03:34:47;;;;;;;1.27;0.30;;;21.70;42.40;;;;;;4991388;28;20064;-52
2023/10/15 03:39:24;;;;;;;0.30;0.30;;;21.60;42.30;;;;;;5008963;28;20053;-53
2023/10/15 03:42:08;;;;;;;1.15;0.40;;;21.70;42.30;;;;;;5008655;28;20057;-47
2023/10/15 03:44:53;;;;;;;0.63;0.40;;;21.60;42.30;;;;;;5008722;28;20053;-53
2023/10/15 03:47:22;;;;;;;0.45;0.15;;;21.60;42.30;;;;;;5006978;28;20354;-50
2023/10/15 03:49:51;;;;;;;1.48;0.47;;;21.60;42.30;;;;;;5008436;28;20460;-50
2023/10/15 03:52:22;;;;;;;0.68;0.25;;;21.60;42.30;;;;;;5010306;28;20029;-52
2023/10/15 03:54:52;;;;;;;0.85;0.30;;;21.60;42.30;;;;;;5012303;28;20452;-48
2023/10/15 03:57:26;;;;;;;1.10;0.40;;;21.60;42.30;;;;;;5012955;28;20452;-48
2023/10/15 03:59:52;;;;;;;;;;;21.60;42.30;;;;;;5012336;28;20038;-53
2023/10/15 04:02:45;;;;;;;0.28;0.17;;;21.60;42.30;;;;;;5011543;28;20344;-53
2023/10/15 04:05:12;;;;;;;0.40;0.20;;;21.60;42.30;;;;;;5011154;28;20408;-51
2023/10/15 04:07:49;;;;;;;0.50;0.22;;;21.60;42.40;;;;;;5011917;28;20318;-51
2023/10/15 04:10:23;;;;;;;0.50;0.20;;;21.60;42.30;;;;;;5012991;28;20124;-51
2023/10/15 04:12:49;;;;;;;2.15;0.47;;;21.60;42.40;;;;;;5011589;28;20108;-53
2023/10/15 04:15:16;;;;;;;0.82;0.32;;;21.60;42.30;;;;;;5011618;28;20808;-53
2023/10/15 04:17:48;;;;;;;0.45;0.20;;;21.60;42.40;;;;;;5011312;28;20036;-55
2023/10/15 04:20:15;;;;;;;0.40;0.20;;;21.60;42.30;;;;;;5010557;28;20119;-50
2023/10/15 04:22:44;;;;;;;0.30;0.20;;;21.60;42.30;;;;;;5011601;28;20358;-53
2023/10/15 04:25:23;;;;;;;0.13;0.13;;;21.60;42.20;;;;;;5011647;28;20029;-55
2023/10/15 04:27:50;;;;;;;0.43;0.20;;;21.60;42.20;;;;;;4995635;28;20125;-53
2023/10/15 04:30:17;;;;;;;0.30;0.20;;;21.60;42.20;;;;;;5010261;28;20123;-50
2023/10/15 04:35:11;;;;;;;0.22;0.15;;;21.60;42.10;;;;;;5010502;28;20363;-51
2023/10/15 04:37:37;;;;;;;2.05;0.28;;;21.60;42.10;;;;;;5011980;28;20433;-51
2023/10/15 04:40:05;;;;;;;0.65;0.30;;;21.60;42.00;;;;;;5011839;28;20025;-52
2023/10/15 04:42:41;;;;;;;0.75;0.30;;;21.60;42.00;;;;;;5011463;28;20437;-51
2023/10/15 04:45:49;;;;;;;0.17;0.13;;;21.50;41.90;;;;;;5010043;28;20465;-52
2023/10/15 04:47:59;;;;;;;0.20;0.13;;;21.60;41.80;;;;;;5000449;28;20042;-49
2023/10/15 04:50:29;;;;;;;0.60;0.20;;;21.60;41.80;;;;;;5011963;28;20026;-54
2023/10/15 04:55:42;;;;;;;0.43;0.20;;;21.60;41.60;;;;;;5010674;28;20077;-52
2023/10/15 04:58:11;;;;;;;1.02;0.40;;;21.60;41.60;;;;;;5011291;28;20026;-50
2023/10/15 05:00:40;;;;;;;1.38;0.60;;;21.60;41.70;;;;;;5011786;28;20033;-49
2023/10/15 05:03:09;;;;;;;0.55;0.35;;;21.50;41.50;;;;;;5009153;28;20441;-49
2023/10/15 05:05:35;;;;;;;0.70;0.40;;;21.60;41.60;;;;;;4992599;28;20029;-47
2023/10/15 05:08:02;;;;;;;0.32;0.30;;;21.50;41.60;;;;;;5009984;28;20543;-51
2023/10/15 05:10:39;;;;;;;0.90;0.40;;;21.60;41.60;;;;;;5010225;28;20072;-49
2023/10/15 05:13:05;;;;;;;0.77;0.30;;;21.50;42.10;;;;;;5010278;28;20037;-53
2023/10/15 05:15:32;;;;;;;0.77;0.40;;;21.50;41.50;;;;;;5010282;28;20353;-53
2023/10/15 05:17:58;;;;;;;0.43;0.20;;;21.50;41.50;;;;;;5011463;28;20081;-53
2023/10/15 05:20:24;;;;;;;0.75;0.32;;;21.50;41.50;;;;;;5010644;28;20073;-53
2023/10/15 05:22:50;;;;;;;0.30;0.28;;;21.50;41.50;;;;;;5010682;28;20406;-53
2023/10/15 05:25:19;;;;;;;0.85;0.40;;;21.50;41.40;;;;;;5009959;28;20034;-52
2023/10/15 05:27:45;;;;;;;0.82;0.38;;;21.50;41.40;;;;;;5010515;28;20045;-50
2023/10/15 05:30:15;;;;;;;0.15;0.10;;;21.50;41.40;;;;;;5010533;28;20021;-49
2023/10/15 05:32:45;;;;;;;0.43;0.30;;;21.50;41.40;;;;;;5010376;28;20156;-51
2023/10/15 05:35:12;;;;;;;0.35;0.25;;;21.50;41.40;;;;;;5009441;28;20114;-49
2023/10/15 05:37:41;;;;;;;0.80;0.35;;;21.50;41.40;;;;;;5011133;28;20041;-49
2023/10/15 05:40:08;;;;;;;0.77;0.30;;;21.50;41.40;;;;;;5010554;28;20037;-48
2023/10/15 05:42:35;;;;;;;0.60;0.30;;;21.50;41.40;;;;;;5009150;28;20021;-49
2023/10/15 05:45:01;;;;;;;0.98;0.40;;;21.50;41.40;;;;;;5011373;28;20033;-50
2023/10/15 05:47:30;;;;;;;1.05;0.40;;;21.50;41.40;;;;;;5009335;28;20057;-50
2023/10/15 05:49:56;;;;;;;0.25;0.20;;;21.50;41.40;;;;;;5007972;28;20041;-47
2023/10/15 05:52:23;;;;;;;0.80;0.30;;;21.50;41.40;;;;;;5009877;28;20026;-49
2023/10/15 05:54:51;;;;;;;0.77;0.30;;;21.50;41.50;;;;;;5010025;28;20487;-49
2023/10/15 05:57:17;;;;;;;0.43;0.20;;;21.50;41.50;;;;;;5010113;28;20053;-48
2023/10/15 05:59:43;;;;;;;1.60;0.20;;;21.50;41.40;;;;;;5010230;28;20053;-49
2023/10/15 06:02:09;;;;;;;0.82;0.22;;;21.50;41.50;;;;;;5010083;28;20116;-49
2023/10/15 06:04:36;;;;;;;1.33;0.20;;;21.50;41.50;;;;;;5009153;28;20041;-50
2023/10/15 06:07:05;;;;;;;0.30;0.20;;;21.50;41.50;;;;;;5009253;28;20053;-50
2023/10/15 06:09:31;;;;;;;1.45;0.47;;;21.50;41.50;;;;;;5009701;28;20472;-48
2023/10/15 06:11:58;;;;;;;0.45;0.30;;;21.50;41.50;;;;;;5009518;28;20125;-50
2023/10/15 06:14:24;;;;;;;0.40;0.17;;;21.50;41.60;;;;;;5008417;28;20036;-50
2023/10/15 06:16:52;;;;;;;0.70;0.30;;;21.50;41.60;;;;;;5009528;28;20325;-52
2023/10/15 06:19:19;;;;;;;0.90;0.38;;;21.50;41.60;;;;;;5009553;28;20026;-50
2023/10/15 06:21:44;;;;;;;0.70;0.30;;;21.50;41.60;;;;;;5008921;28;20112;-55
2023/10/15 06:24:10;;;;;;;0.47;0.30;;;21.50;41.60;;;;;;5009276;28;20041;-52
2023/10/15 06:26:37;;;;;;;0.57;0.20;;;21.50;41.60;;;;;;5010425;28;20026;-49
2023/10/15 06:29:04;;;;;;;0.40;0.30;;;21.50;41.60;;;;;;5008979;28;20709;-51
2023/10/15 06:31:30;;;;;;;0.22;0.20;;;21.50;41.60;;;;;;5009499;28;20475;-48
2023/10/15 06:33:56;;;;;;;0.20;0.10;;;21.50;41.60;;;;;;5007361;28;20030;-53
2023/10/15 06:36:22;;;;;;;0.50;0.20;;;21.40;41.60;;;;;;5009443;28;20029;-50
2023/10/15 06:38:50;;;;;;;1.55;0.40;;;21.50;41.70;;;;;;5007687;28;20033;-48
2023/10/15 06:41:16;;;;;;;0.47;0.30;;;21.50;41.70;;;;;;5009250;28;20301;-49
2023/10/15 06:43:42;;;;;;;1.00;0.35;;;21.50;41.60;;;;;;5008735;28;20041;-51
2023/10/15 06:46:08;;;;;;;0.90;0.43;;;21.50;41.70;;;;;;5009723;28;20033;-49
2023/10/15 06:48:38;;;;;;;0.88;0.35;;;21.50;41.60;;;;;;5008773;28;20041;-52
2023/10/15 06:51:07;;;;;;;0.77;0.28;;;21.40;41.50;;;;;;5007267;28;20429;-49
2023/10/15 06:53:37;;;;;;;0.40;0.30;;;21.50;41.60;;;;;;5008308;28;20030;-48
2023/10/15 06:56:06;;;;;;;0.45;0.22;;;21.40;41.50;;;;;;5008709;28;20121;-48
2023/10/15 06:58:35;;;;;;;0.55;0.28;;;21.50;41.50;;;;;;5006671;28;20095;-50
2023/10/15 07:01:07;;;;;;;0.80;0.40;;;21.50;41.50;;;;;;5007483;28;20088;-50
2023/10/15 07:03:33;;;;;;;0.50;0.28;;;21.40;41.50;;;;;;5008894;28;20041;-51
2023/10/15 07:05:59;;;;;;;1.05;0.40;;;21.50;41.50;;;;;;5007361;28;20029;-48
2023/10/15 07:08:25;;;;;;;0.60;0.30;;;21.50;41.50;;;;;;5008450;28;20041;-54
2023/10/15 07:10:51;;;;;;;0.55;0.20;;;21.50;41.60;;;;;;5008858;28;20025;-51
2023/10/15 07:13:18;;;;;;;0.82;0.30;;;21.40;41.80;;;;;;5012658;28;20460;-48
2023/10/15 07:15:45;;;;;;;0.50;0.30;;;21.50;41.90;;;;;;5012542;28;20492;-48
2023/10/15 07:18:12;;;;;;;0.63;0.30;;;21.50;41.90;;;;;;5011491;28;20025;-49
2023/10/15 07:20:38;;;;;;;0.30;0.20;;;21.50;42.00;;;;;;5009693;28;20030;-52
2023/10/15 07:23:04;;;;;;;0.73;0.30;;;21.50;42.10;;;;;;5007383;28;20124;-54
2023/10/15 07:25:32;;;;;;;0.38;0.20;;;21.50;42.10;;;;;;5009028;28;20184;-48
2023/10/15 07:27:59;;;;;;;0.88;0.38;;;21.50;42.00;;;;;;5011398;28;20029;-53
2023/10/15 07:30:26;;;;;;;0.38;0.38;;;21.50;42.00;;;;;;5012617;28;20084;-53
2023/10/15 07:32:54;;;;;;;0.90;0.25;;;21.50;42.10;;;;;;5012342;28;20034;-51
2023/10/15 07:35:21;;;;;;;0.68;0.32;;;21.50;42.70;;;;;;5011754;28;20104;-52
2023/10/15 07:37:51;;;;;;;0.85;0.30;;;21.50;42.10;;;;;;5011976;28;20064;-52
2023/10/15 07:40:22;;;;;;;1.65;0.43;;;21.50;42.10;;;;;;5012597;28;20030;-51
2023/10/15 07:42:50;;;;;;;0.80;0.43;;;21.50;42.10;;;;;;4994084;28;20029;-53
2023/10/15 07:45:17;;;;;;;0.90;0.30;;;21.50;42.10;;;;;;5013205;28;20057;-49
2023/10/15 07:47:43;;;;;;;1.25;0.40;;;21.50;42.10;;;;;;5012812;28;20034;-51
2023/10/15 07:50:23;;;;;;;1.10;0.43;;;21.50;42.10;;;;;;5012070;28;20105;-51
2023/10/15 07:52:50;;;;;;;1.08;0.22;;;21.50;42.10;;;;;;5013282;28;20034;-50
2023/10/15 07:55:17;;;;;;;1.05;0.45;;;21.50;42.00;;;;;;5012919;28;20105;-50
2023/10/15 07:57:43;;;;;;;1.42;0.50;;;21.50;42.00;;;;;;5013033;28;20386;-52
2023/10/15 08:00:22;;;;;;;0.60;0.30;;;21.50;42.00;;;;;;4995849;28;20072;-50
2023/10/15 08:02:52;;;;;;;0.95;0.35;;;21.50;42.00;;;;;;5012437;28;20345;-47
2023/10/15 08:05:21;;;;;;;0.65;0.30;;;21.50;42.00;;;;;;5012658;28;20447;-54
2023/10/15 08:07:48;;;;;;;0.70;0.40;;;21.50;41.90;;;;;;4981267;28;20021;-54
2023/10/15 08:10:14;;;;;;;1.17;0.45;;;21.50;41.90;;;;;;5012979;28;20456;-55
2023/10/15 08:12:41;;;;;;;1.58;0.40;;;21.50;41.90;;;;;;5012360;28;20029;-50
2023/10/15 08:15:07;;;;;;;1.95;0.45;;;21.50;41.90;;;;;;5017306;28;20084;-53
2023/10/15 08:17:33;;;;;;;1.02;0.28;;;21.50;42.00;;;;;;5016607;28;20054;-50
2023/10/15 08:20:00;;;;;;;0.68;0.40;;;21.50;42.00;;;;;;5017558;28;20069;-52
2023/10/15 08:22:28;;;;;;;5.72;2.20;;;21.50;42.00;;;;;;5012750;28;20029;-49
2023/10/15 08:24:55;;;;;;;3.63;1.75;;;21.50;42.30;;;;;;5016331;28;20065;-53
2023/10/15 08:27:21;;;;;;;8.07;3.42;;;21.50;42.60;;;;;;5016110;28;20044;-52
2023/10/15 08:29:47;;;;;;;12.15;4.70;;;21.50;43.20;;;;;;5016411;28;20030;-56
2023/10/15 08:32:20;;;;;;;10.95;4.82;;;21.50;44.30;;;;;;5015098;28;20034;-52
2023/10/15 08:34:47;;;;;;;11.18;5.63;;;21.60;45.10;;;;;;5016033;28;20404;-49
2023/10/15 08:37:13;;;;;;;9.23;4.72;;;21.60;45.60;;;;;;5015048;28;20113;-50
2023/10/15 08:39:39;;;;;;;12.30;6.43;;;21.60;45.90;;;;;;5011952;28;20121;-49
2023/10/15 08:42:13;;;;;;;12.90;6.30;;;21.60;46.40;;;;;;5008756;28;20053;-51
2023/10/15 08:44:42;;;;;;;11.43;5.45;;;21.60;46.60;;;;;;5011578;28;20034;-52
2023/10/15 08:47:13;;;;;;;9.48;4.20;;;21.70;46.60;;;;;;5011942;28;20024;-51
2023/10/15 08:49:49;;;;;;;8.93;3.75;;;21.70;46.20;;;;;;5012541;28;20033;-48
2023/10/15 08:52:17;;;;;;;7.13;3.20;;;21.80;45.90;;;;;;5011805;28;20030;-50
2023/10/15 08:54:45;;;;;;;5.13;2.35;;;21.90;45.70;;;;;;5011929;28;20038;-48
2023/10/15 08:57:11;;;;;;;5.05;2.05;;;22.00;45.40;;;;;;5011061;28;20030;-50
2023/10/15 08:59:38;;;;;;;4.47;1.98;;;22.00;45.10;;;;;;5011973;28;20034;-52
2023/10/15 09:02:08;;;;;;;5.03;2.38;;;22.10;44.70;;;;;;5010820;28;20026;-51
2023/10/15 09:04:35;;;;;;;4.13;1.80;;;22.20;44.50;;;;;;5011202;28;20046;-48
2023/10/15 09:07:02;;;;;;;4.35;2.20;;;22.30;44.20;;;;;;5011965;28;20029;-52
2023/10/15 09:09:34;;;;;;;16.92;5.65;;;22.30;44.00;;;;;;5012200;28;20034;-53
2023/10/15 09:12:00;;;;;;;19.60;7.15;;;22.30;44.30;;;;;;5011466;28;20029;-56
2023/10/15 09:14:42;;;;;;;17.83;7.43;;;22.40;45.10;;;;;;5011307;28;20041;-50
2023/10/15 09:17:10;;;;;;;20.20;7.40;;;22.40;46.10;;;;;;5011295;28;20049;-54
2023/10/15 09:19:40;;;;;;;13.68;6.53;;;22.40;46.60;;;;;;5012439;28;20049;-55
2023/10/15 09:22:16;;;;;;;11.77;6.30;;;22.40;47.00;;;;;;5011219;28;20430;-52
2023/10/15 09:24:45;;;;;;;13.20;5.97;;;22.40;47.60;;;;;;5008881;28;20034;-52
2023/10/15 09:27:13;;;;;;;12.55;5.40;;;22.40;48.00;;;;;;5011881;28;20215;-51
2023/10/15 09:29:41;;;;;;;13.63;5.90;;;22.40;48.30;;;;;;5011880;28;20049;-57
2023/10/15 09:32:07;;;;;;;12.20;5.20;;;22.40;48.60;;;;;;5009821;28;20105;-49
2023/10/15 09:34:37;;;;;;;10.48;4.50;;;22.40;48.70;;;;;;5011154;28;20121;-52
2023/10/15 09:37:07;;;;;;;7.63;4.07;;;22.40;48.40;;;;;;5011055;28;20033;-48
2023/10/15 09:39:38;;;;;;;11.38;4.18;;;22.40;48.10;;;;;;5010781;28;20033;-49
2023/10/15 09:42:05;;;;;;;7.30;3.65;;;22.30;47.80;;;;;;5010479;28;20405;-49
2023/10/15 09:44:35;;;;;;;7.05;3.28;;;22.30;47.50;;;;;;5010732;28;20026;-50
2023/10/15 09:47:01;;;;;;;5.88;3.25;;;22.30;47.00;;;;;;5010711;28;20103;-55
2023/10/15 09:49:31;;;;;;;5.85;2.50;;;22.30;46.80;;;;;;5009794;28;20049;-50
2023/10/15 09:52:02;;;;;;;4.90;2.38;;;22.20;46.40;;;;;;5011213;28;20034;-48
2023/10/15 09:54:30;;;;;;;5.63;2.13;;;22.20;46.10;;;;;;5010646;28;20037;-49
2023/10/15 09:56:57;;;;;;;5.85;2.10;;;22.20;45.80;;;;;;5010498;28;20061;-48
2023/10/15 09:59:24;;;;;;;4.57;2.03;;;22.20;46.20;;;;;;5010650;28;20040;-52
2023/10/15 10:01:54;;;;;;;3.65;1.70;;;22.20;45.30;;;;;;5009673;28;20152;-50
2023/10/15 10:04:26;;;;;;;4.28;1.90;;;22.20;45.00;;;;;;5011229;28;20042;-50
2023/10/15 10:06:54;;;;;;;4.18;1.90;;;22.10;44.70;;;;;;5010813;28;20040;-48
2023/10/15 10:09:38;;;;;;;4.00;1.77;;;22.10;44.70;;;;;;5011079;28;20049;-50
2023/10/15 10:12:16;;;;;;;3.70;1.70;;;22.10;44.60;;;;;;5010634;28;20068;-51
2023/10/15 10:15:06;;;;;;;3.53;1.65;;;22.10;44.60;;;;;;5008588;28;20445;-50
2023/10/15 10:17:33;;;;;;;3.78;1.83;;;22.10;44.50;;;;;;5011078;28;20041;-52
2023/10/15 10:20:10;;;;;;;3.25;1.35;;;22.00;44.40;;;;;;5010998;28;20026;-48
2023/10/15 10:22:38;;;;;;;4.50;1.63;;;22.00;44.40;;;;;;5012596;28;20030;-47
2023/10/15 10:25:04;;;;;;;2.90;1.20;;;22.00;44.30;;;;;;5013326;28;20037;-53
2023/10/15 10:27:43;;;;;;;2.95;1.30;;;22.00;44.30;;;;;;5013804;28;20029;-53
2023/10/15 10:30:27;;;;;;;3.13;1.35;;;22.00;44.20;;;;;;5008727;28;20421;-50
2023/10/15 10:32:57;;;;;;;3.17;1.45;;;22.00;44.20;;;;;;5010832;28;20036;-54
2023/10/15 10:35:24;;;;;;;3.80;1.35;;;22.00;44.20;;;;;;5009314;28;20132;-54
2023/10/15 10:38:10;;;;;;;3.45;1.40;;;21.90;44.10;;;;;;5007801;28;20322;-50
2023/10/15 10:41:04;;;;;;;3.00;1.23;;;21.90;44.00;;;;;;5008860;28;20040;-53
2023/10/15 10:43:30;;;;;;;2.92;1.30;;;21.90;44.00;;;;;;5008277;28;20053;-54
2023/10/15 10:46:01;;;;;;;2.63;1.20;;;21.90;44.00;;;;;;5007462;28;20045;-52
2023/10/15 10:48:28;;;;;;;7.03;1.10;;;21.90;44.00;;;;;;5010375;28;20022;-49
2023/10/15 10:51:21;;;;;;;2.05;0.80;;;21.90;44.00;;;;;;4991500;28;20026;-52
2023/10/15 10:53:59;;;;;;;2.58;0.93;;;21.90;43.90;;;;;;5010296;28;20037;-52
2023/10/15 10:56:41;;;;;;;2.28;1.00;;;22.00;43.80;;;;;;5006923;28;20112;-51
2023/10/15 10:59:11;;;;;;;2.17;0.90;;;22.10;43.60;;;;;;5006328;28;20029;-53
2023/10/15 11:01:40;;;;;;;1.90;0.95;;;22.20;43.50;;;;;;5001503;28;20160;-54
2023/10/15 11:04:15;;;;;;;2.28;0.93;;;22.20;43.20;;;;;;5008820;28;20048;-48
2023/10/15 11:06:46;;;;;;;1.30;0.70;;;22.30;43.00;;;;;;5007468;28;20030;-50
2023/10/15 11:09:16;;;;;;;1.48;0.80;;;22.40;42.90;;;;;;5009085;28;20045;-50
2023/10/15 11:11:49;;;;;;;2.17;0.80;;;22.50;42.70;;;;;;5009787;28;20424;-59
2023/10/15 11:14:22;;;;;;;2.83;0.88;;;22.50;42.70;;;;;;5006835;28;20357;-47
2023/10/15 11:16:50;;;;;;;6.45;1.20;;;22.60;42.90;;;;;;5006968;28;20113;-57
2023/10/15 11:19:24;;;;;;;6.18;1.13;;;22.60;42.90;;;;;;5011048;28;20026;-52
2023/10/15 11:21:52;;;;;;;1.85;0.80;;;22.70;42.90;;;;;;5008800;28;20037;-52
2023/10/15 11:24:19;;;;;;;1.95;1.10;;;22.80;43.00;;;;;;5007707;28;20384;-53
2023/10/15 11:26:45;;;;;;;3.50;1.05;;;22.80;42.80;;;;;;5009943;28;20030;-59
2023/10/15 11:29:13;;;;;;;3.15;1.05;;;22.90;42.80;;;;;;5010184;28;20075;-56
2023/10/15 11:31:44;;;;;;;5.60;1.00;;;22.90;42.80;;;;;;5009076;28;20045;-51
2023/10/15 11:34:17;;;;;;;2.88;1.08;;;23.00;42.80;;;;;;5011620;28;20353;-50
2023/10/15 11:36:48;;;;;;;4.75;0.88;;;23.10;43.30;;;;;;4991034;28;20124;-52
2023/10/15 11:39:19;;;;;;;6.15;1.33;;;23.10;42.50;;;;;;5009153;28;20030;-48
2023/10/15 11:41:56;;;;;;;4.68;1.00;;;23.10;42.30;;;;;;5004180;28;20044;-47
2023/10/15 11:44:31;;;;;;;1.05;0.60;;;23.10;42.20;;;;;;5007412;28;20061;-50
2023/10/15 11:47:08;;;;;;;2.80;0.93;;;23.00;42.10;;;;;;5006341;28;20133;-50
2023/10/15 11:49:38;;;;;;;4.07;0.80;;;22.90;42.00;;;;;;5007224;28;20112;-49
2023/10/15 11:52:11;;;;;;;2.38;0.68;;;22.90;42.60;;;;;;5006819;28;20425;-48
2023/10/15 11:54:43;;;;;;;2.03;0.70;;;22.80;41.90;;;;;;5006243;28;20045;-51
2023/10/15 11:57:16;;;;;;;1.60;0.60;;;22.70;41.90;;;;;;5005792;28;20061;-49
2023/10/15 11:59:45;;;;;;;1.88;0.73;;;22.70;41.90;;;;;;5007936;28;20156;-50
2023/10/15 12:02:11;;;;;;;1.23;0.55;;;22.60;41.90;;;;;;5006078;28;20053;-49
2023/10/15 12:04:40;;;;;;;3.05;1.00;;;22.60;42.00;;;;;;5008698;28;20045;-51
2023/10/15 12:07:15;;;;;;;2.97;0.80;;;22.50;42.50;;;;;;5010341;28;20319;-46
2023/10/15 12:09:47;;;;;;;4.38;0.95;;;22.50;43.10;;;;;;5003570;28;20449;-49
2023/10/15 12:12:15;;;;;;;8.43;1.17;;;22.40;43.40;;;;;;5012388;28;20034;-49
2023/10/15 12:14:42;;;;;;;2.13;0.90;;;22.40;43.60;;;;;;5016298;28;20101;-48
2023/10/15 12:17:08;;;;;;;4.95;0.80;;;22.40;43.80;;;;;;5015820;28;20522;-49
2023/10/15 12:19:34;;;;;;;2.53;0.85;;;22.40;43.90;;;;;;5015965;28;20042;-49
2023/10/15 12:22:01;;;;;;;3.70;0.90;;;22.40;44.00;;;;;;5016107;28;20120;-50
2023/10/15 12:24:27;;;;;;;2.80;0.80;;;22.40;44.00;;;;;;5016102;28;20045;-48
2023/10/15 12:26:52;;;;;;;1.67;0.80;;;22.40;44.10;;;;;;4997940;28;20029;-49
2023/10/15 12:29:28;;;;;;;4.18;1.10;;;22.30;44.10;;;;;;5015623;28;20095;-48
2023/10/15 12:31:57;;;;;;;4.00;0.80;;;22.30;44.30;;;;;;5015446;28;20036;-49
2023/10/15 12:34:24;;;;;;;2.33;0.60;;;22.30;44.20;;;;;;5015736;28;20176;-50
2023/10/15 12:36:50;;;;;;;3.35;0.60;;;22.30;44.30;;;;;;4998133;28;20030;-50
2023/10/15 12:39:16;;;;;;;1.42;0.60;;;22.30;44.30;;;;;;5015696;28;20453;-48
2023/10/15 12:41:42;;;;;;;1.90;0.60;;;22.30;44.10;;;;;;5015317;28;20046;-47
2023/10/15 12:44:11;;;;;;;1.52;0.70;;;22.30;44.10;;;;;;4997727;28;20411;-48
2023/10/15 12:46:37;;;;;;;3.40;1.17;;;22.30;44.00;;;;;;5014957;28;20025;-49
2023/10/15 12:49:05;;;;;;;4.00;1.70;;;22.40;44.00;;;;;;4998014;28;20034;-51
2023/10/15 12:51:31;;;;;;;6.25;1.45;;;22.30;43.80;;;;;;5000446;28;20040;-46
2023/10/15 12:53:57;;;;;;;4.75;1.35;;;22.30;43.80;;;;;;5015765;28;20408;-49
2023/10/15 12:56:24;;;;;;;3.28;1.20;;;22.30;43.80;;;;;;4998983;28;20160;-49
2023/10/15 12:58:50;;;;;;;4.53;1.25;;;22.30;43.80;;;;;;5015959;28;20045;-46
2023/10/15 13:01:20;;;;;;;3.90;0.90;;;22.30;43.80;;;;;;5015888;28;20034;-46
2023/10/15 13:03:49;;;;;;;6.78;1.40;;;22.30;43.80;;;;;;5012837;28;20105;-48
2023/10/15 13:06:16;;;;;;;3.65;0.80;;;22.30;43.80;;;;;;5013394;28;20054;-49
2023/10/15 13:08:42;;;;;;;1.65;1.00;;;22.30;43.80;;;;;;5010108;28;20393;-47
2023/10/15 13:11:11;;;;;;;1.80;0.88;;;22.30;43.70;;;;;;5013713;28;20034;-48
2023/10/15 13:13:41;;;;;;;3.50;0.80;;;22.30;43.70;;;;;;5013876;28;20030;-49
2023/10/15 13:16:08;;;;;;;4.13;0.90;;;22.30;43.60;;;;;;5011737;28;20046;-48
2023/10/15 13:18:38;;;;;;;4.53;1.35;;;22.40;43.60;;;;;;5013287;28;20361;-48
2023/10/15 13:21:05;;;;;;;2.22;0.90;;;22.40;43.50;;;;;;5013428;28;20029;-48
2023/10/15 13:23:31;;;;;;;2.03;0.73;;;22.40;43.50;;;;;;5010212;28;20472;-52
2023/10/15 13:25:57;;;;;;;2.92;0.88;;;22.30;43.30;;;;;;5011902;28;20444;-46
2023/10/15 13:28:23;;;;;;;2.30;1.00;;;22.30;43.30;;;;;;5012154;28;20037;-47